^^
Saratoga-Weather Station Historical Data
Daily Summary for March 30, 2021 Units:  Both    English   Metric
Daily Weekly Monthly Yearly Custom
  High: Low: Average:
Temperature: 45.9 °F /  7.7 °C 43.3 °F /  6.3 °C 44.4 °F /  6.9 °C
Dew Point: 43.9 °F /  6.6 °C 40.8 °F /  4.9 °C 42.8 °F /  6 °C
Humidity: 97% 90% 94%
Wind Speed: 6.9mph /  11.1km/h - 1.3mph /  2.1km/h
Wind Gust: 11mph /  17.7km/h - -
Wind- - South
Pressure: 29.6 in /  1003.0 hPa 29.4 in /  993.9 hPa -
Precipitation: 0.43 in /  10.9 mm    
Historical Graphs
 
 
Tabular Data for March 30, 2021
Time Temperature Dew Point Pressure Wind Wind Speed Wind Gust Humidity Rainfall Rate (Hourly) solar
00:02 45.3 °F /  7.4 °C 43.2 °F /  6.2 °C 29.6in /  1003.0hPa West 0.9mph /  1.4km/h 5mph /  8km/h 92% 0in /  0.0mm 0 W/m2
00:07 45.3 °F /  7.4 °C 43.2 °F /  6.2 °C 29.6in /  1003.0hPa West 4mph /  6.4km/h 7mph /  11.3km/h 92% 0in /  0.0mm 0 W/m2
00:12 45.3 °F /  7.4 °C 43.2 °F /  6.2 °C 29.6in /  1003.0hPa SW 4mph /  6.4km/h 5mph /  8km/h 92% 0in /  0.0mm 0 W/m2
00:17 45.1 °F /  7.3 °C 43 °F /  6.1 °C 29.6in /  1003.0hPa WNW 2mph /  3.2km/h 7mph /  11.3km/h 92% 0in /  0.0mm 0 W/m2
00:22 45.3 °F /  7.4 °C 43.2 °F /  6.2 °C 29.6in /  1003.0hPa WNW 2mph /  3.2km/h 9mph /  14.5km/h 92% 0in /  0.0mm 0 W/m2
00:27 45.3 °F /  7.4 °C 43.2 °F /  6.2 °C 29.6in /  1003.0hPa WSW 2.9mph /  4.7km/h 4mph /  6.4km/h 92% 0in /  0.0mm 0 W/m2
00:32 45.3 °F /  7.4 °C 43.2 °F /  6.2 °C 29.6in /  1003.0hPa Calm   7mph /  11.3km/h 92% 0in /  0.0mm 0 W/m2
00:37 45.3 °F /  7.4 °C 43.2 °F /  6.2 °C 29.6in /  1003.0hPa NW 2.9mph /  4.7km/h 6mph /  9.7km/h 92% 0in /  0.0mm 0 W/m2
00:42 45.3 °F /  7.4 °C 43.2 °F /  6.2 °C 29.6in /  1003.0hPa SSE 2.9mph /  4.7km/h 6mph /  9.7km/h 92% 0in /  0.0mm 0 W/m2
00:47 45.3 °F /  7.4 °C 43.2 °F /  6.2 °C 29.6in /  1003.0hPa WSW 2mph /  3.2km/h 4mph /  6.4km/h 92% 0in /  0.0mm 0 W/m2
00:52 45.3 °F /  7.4 °C 43.2 °F /  6.2 °C 29.6in /  1003.0hPa WNW 4mph /  6.4km/h 5mph /  8km/h 92% 0in /  0.0mm 0 W/m2
00:57 45.5 °F /  7.5 °C 43.3 °F /  6.3 °C 29.6in /  1003.0hPa West 6mph /  9.7km/h 8mph /  12.9km/h 92% 0in /  0.0mm 0 W/m2
01:02 45.5 °F /  7.5 °C 43.3 °F /  6.3 °C 29.6in /  1003.0hPa West 6mph /  9.7km/h 6mph /  9.7km/h 92% 0in /  0.0mm 0 W/m2
01:07 45.5 °F /  7.5 °C 43.3 °F /  6.3 °C 29.6in /  1003.0hPa WSW 0.9mph /  1.4km/h 6mph /  9.7km/h 92% 0in /  0.0mm 0 W/m2
01:12 45.5 °F /  7.5 °C 43.3 °F /  6.3 °C 29.6in /  1003.0hPa WSW 2.9mph /  4.7km/h 3mph /  4.8km/h 92% 0in /  0.0mm 0 W/m2
01:17 45.3 °F /  7.4 °C 43.2 °F /  6.2 °C 29.6in /  1003.0hPa WNW 2.9mph /  4.7km/h 4mph /  6.4km/h 92% 0in /  0.0mm 0 W/m2
01:22 45.3 °F /  7.4 °C 43.2 °F /  6.2 °C 29.6in /  1003.0hPa NW 2.9mph /  4.7km/h 3mph /  4.8km/h 92% 0in /  0.0mm 0 W/m2
01:27 45.5 °F /  7.5 °C 43.3 °F /  6.3 °C 29.6in /  1003.0hPa West 6.9mph /  11.1km/h 11mph /  17.7km/h 92% 0in /  0.0mm 0 W/m2
01:32 45.7 °F /  7.6 °C 43.5 °F /  6.4 °C 29.6in /  1002.7hPa West 6mph /  9.7km/h 8mph /  12.9km/h 92% 0in /  0.0mm 0 W/m2
01:37 45.7 °F /  7.6 °C 43.5 °F /  6.4 °C 29.6in /  1002.7hPa WSW 2mph /  3.2km/h 7mph /  11.3km/h 92% 0in /  0.0mm 0 W/m2
01:42 45.7 °F /  7.6 °C 43.5 °F /  6.4 °C 29.6in /  1002.7hPa West 2.9mph /  4.7km/h 8mph /  12.9km/h 92% 0in /  0.0mm 0 W/m2
01:47 45.7 °F /  7.6 °C 43.5 °F /  6.4 °C 29.6in /  1002.7hPa WNW 2.9mph /  4.7km/h 7mph /  11.3km/h 92% 0in /  0.0mm 0 W/m2
01:52 45.9 °F /  7.7 °C 43.7 °F /  6.5 °C 29.6in /  1002.7hPa NNW 4.9mph /  7.9km/h 8mph /  12.9km/h 92% 0in /  0.0mm 0 W/m2
01:57 45.7 °F /  7.6 °C 43.2 °F /  6.2 °C 29.6in /  1002.7hPa WNW 2mph /  3.2km/h 5mph /  8km/h 91% 0in /  0.0mm 0 W/m2
02:02 45.7 °F /  7.6 °C 43.2 °F /  6.2 °C 29.6in /  1002.7hPa WSW 2mph /  3.2km/h 5mph /  8km/h 91% 0in /  0.0mm 0 W/m2
02:07 45.7 °F /  7.6 °C 43.2 °F /  6.2 °C 29.6in /  1002.7hPa West 2mph /  3.2km/h 5mph /  8km/h 91% 0in /  0.0mm 0 W/m2
02:12 45.7 °F /  7.6 °C 43.2 °F /  6.2 °C 29.6in /  1002.4hPa WSW 4mph /  6.4km/h 4mph /  6.4km/h 91% 0in /  0.0mm 0 W/m2
02:17 45.7 °F /  7.6 °C 43.2 °F /  6.2 °C 29.6in /  1002.4hPa WNW 2.9mph /  4.7km/h 4mph /  6.4km/h 91% 0in /  0.0mm 0 W/m2
02:22 45.7 °F /  7.6 °C 43.5 °F /  6.4 °C 29.6in /  1002.4hPa WNW 0.9mph /  1.4km/h 8mph /  12.9km/h 92% 0in /  0.0mm 0 W/m2
02:27 45.5 °F /  7.5 °C 43.3 °F /  6.3 °C 29.6in /  1002.4hPa NW 2mph /  3.2km/h 9mph /  14.5km/h 92% 0in /  0.0mm 0 W/m2
02:32 45.3 °F /  7.4 °C 43.2 °F /  6.2 °C 29.6in /  1002.4hPa WNW 2mph /  3.2km/h 5mph /  8km/h 92% 0in /  0.0mm 0 W/m2
02:37 45.3 °F /  7.4 °C 43.2 °F /  6.2 °C 29.6in /  1002.7hPa WNW 2.9mph /  4.7km/h 9mph /  14.5km/h 92% 0in /  0.0mm 0 W/m2
02:42 45.3 °F /  7.4 °C 43.2 °F /  6.2 °C 29.6in /  1002.4hPa WNW 0.9mph /  1.4km/h 3mph /  4.8km/h 92% 0in /  0.0mm 0 W/m2
02:47 45.3 °F /  7.4 °C 43.2 °F /  6.2 °C 29.6in /  1002.4hPa WNW 2.9mph /  4.7km/h 7mph /  11.3km/h 92% 0in /  0.0mm 0 W/m2
02:52 45.1 °F /  7.3 °C 43 °F /  6.1 °C 29.6in /  1002.4hPa Calm   5mph /  8km/h 92% 0in /  0.0mm 0 W/m2
02:57 45.3 °F /  7.4 °C 43.2 °F /  6.2 °C 29.6in /  1002.4hPa NW 0.9mph /  1.4km/h 5mph /  8km/h 92% 0in /  0.0mm 0 W/m2
03:02 45.1 °F /  7.3 °C 43 °F /  6.1 °C 29.6in /  1002.4hPa WNW 2mph /  3.2km/h 6mph /  9.7km/h 92% 0in /  0.0mm 0 W/m2
03:07 45.1 °F /  7.3 °C 43 °F /  6.1 °C 29.6in /  1002.7hPa Calm   3mph /  4.8km/h 92% 0in /  0.0mm 0 W/m2
03:12 45.1 °F /  7.3 °C 43 °F /  6.1 °C 29.6in /  1002.7hPa West 0.9mph /  1.4km/h 7mph /  11.3km/h 92% 0in /  0.0mm 0 W/m2
03:17 45.1 °F /  7.3 °C 43 °F /  6.1 °C 29.6in /  1002.7hPa NW 2mph /  3.2km/h 7mph /  11.3km/h 92% 0in /  0.0mm 0 W/m2
03:22 45.1 °F /  7.3 °C 43 °F /  6.1 °C 29.6in /  1002.7hPa NW 2mph /  3.2km/h 2mph /  3.2km/h 92% 0in /  0.0mm 0 W/m2
03:27 45.1 °F /  7.3 °C 43 °F /  6.1 °C 29.6in /  1002.7hPa SSW 2mph /  3.2km/h 7mph /  11.3km/h 92% 0in /  0.0mm 0 W/m2
03:32 45 °F /  7.2 °C 42.8 °F /  6 °C 29.6in /  1002.4hPa WNW 0.9mph /  1.4km/h 3mph /  4.8km/h 92% 0in /  0.0mm 0 W/m2
03:37 45 °F /  7.2 °C 42.4 °F /  5.8 °C 29.6in /  1002.4hPa West 0.9mph /  1.4km/h 2mph /  3.2km/h 91% 0in /  0.0mm 0 W/m2
03:42 44.8 °F /  7.1 °C 42.3 °F /  5.7 °C 29.6in /  1002.4hPa WNW 2.9mph /  4.7km/h 5mph /  8km/h 91% 0in /  0.0mm 0 W/m2
03:47 44.8 °F /  7.1 °C 42.3 °F /  5.7 °C 29.6in /  1002.4hPa Calm   2mph /  3.2km/h 91% 0in /  0.0mm 0 W/m2
03:52 44.6 °F /  7 °C 42.1 °F /  5.6 °C 29.6in /  1002.4hPa NNE 0.9mph /  1.4km/h 5mph /  8km/h 91% 0in /  0.0mm 0 W/m2
03:57 44.4 °F /  6.9 °C 41.9 °F /  5.5 °C 29.6in /  1002.4hPa WNW 0.9mph /  1.4km/h 3mph /  4.8km/h 91% 0in /  0.0mm 0 W/m2
04:02 44.4 °F /  6.9 °C 41.9 °F /  5.5 °C 29.6in /  1002.0hPa Calm   1mph /  1.6km/h 91% 0in /  0.0mm 0 W/m2
04:07 44.4 °F /  6.9 °C 41.7 °F /  5.4 °C 29.6in /  1002.0hPa Calm   4mph /  6.4km/h 90% 0in /  0.0mm 0 W/m2
04:12 44.2 °F /  6.8 °C 41.7 °F /  5.4 °C 29.6in /  1002.0hPa SW 2.9mph /  4.7km/h 6mph /  9.7km/h 91% 0in /  0.0mm 0 W/m2
04:17 44.1 °F /  6.7 °C 41.5 °F /  5.3 °C 29.6in /  1002.0hPa South 2mph /  3.2km/h 2mph /  3.2km/h 91% 0in /  0.0mm 0 W/m2
04:22 44.1 °F /  6.7 °C 41.5 °F /  5.3 °C 29.6in /  1002.0hPa East 2mph /  3.2km/h 3mph /  4.8km/h 91% 0in /  0.0mm 0 W/m2
04:27 43.9 °F /  6.6 °C 41.4 °F /  5.2 °C 29.6in /  1002.0hPa WSW 2.9mph /  4.7km/h 3mph /  4.8km/h 91% 0in /  0.0mm 0 W/m2
04:32 43.7 °F /  6.5 °C 41.2 °F /  5.1 °C 29.6in /  1001.7hPa ESE 2.9mph /  4.7km/h 4mph /  6.4km/h 91% 0in /  0.0mm 0 W/m2
04:37 43.7 °F /  6.5 °C 41.2 °F /  5.1 °C 29.6in /  1002.0hPa WNW 2.9mph /  4.7km/h 3mph /  4.8km/h 91% 0in /  0.0mm 0 W/m2
04:42 43.5 °F /  6.4 °C 41 °F /  5 °C 29.6in /  1002.0hPa SSE 0.9mph /  1.4km/h 4mph /  6.4km/h 91% 0in /  0.0mm 0 W/m2
04:47 43.5 °F /  6.4 °C 41 °F /  5 °C 29.6in /  1002.0hPa WNW 2mph /  3.2km/h 4mph /  6.4km/h 91% 0in /  0.0mm 0 W/m2
04:52 43.5 °F /  6.4 °C 41 °F /  5 °C 29.6in /  1002.0hPa WNW 0.9mph /  1.4km/h 3mph /  4.8km/h 91% 0in /  0.0mm 0 W/m2
04:57 43.5 °F /  6.4 °C 41 °F /  5 °C 29.6in /  1002.0hPa NW 2.9mph /  4.7km/h 5mph /  8km/h 91% 0in /  0.0mm 0 W/m2
05:02 43.3 °F /  6.3 °C 40.8 °F /  4.9 °C 29.6in /  1002.0hPa WNW 2mph /  3.2km/h 7mph /  11.3km/h 91% 0in /  0.0mm 0 W/m2
05:07 43.3 °F /  6.3 °C 40.8 °F /  4.9 °C 29.6in /  1001.7hPa West 2mph /  3.2km/h 3mph /  4.8km/h 91% 0in /  0.0mm 0 W/m2
05:12 43.5 °F /  6.4 °C 41 °F /  5 °C 29.6in /  1001.7hPa WSW 2mph /  3.2km/h 8mph /  12.9km/h 91% 0in /  0.0mm 0 W/m2
05:17 43.3 °F /  6.3 °C 40.8 °F /  4.9 °C 29.6in /  1001.7hPa NNW 4mph /  6.4km/h 5mph /  8km/h 91% 0in /  0.0mm 0 W/m2
05:22 43.5 °F /  6.4 °C 41 °F /  5 °C 29.6in /  1001.7hPa South 0.9mph /  1.4km/h 10mph /  16.1km/h 91% 0in /  0.0mm 0 W/m2
05:27 43.5 °F /  6.4 °C 41 °F /  5 °C 29.6in /  1001.7hPa Calm   1mph /  1.6km/h 91% 0in /  0.0mm 0 W/m2
05:32 43.5 °F /  6.4 °C 41.4 °F /  5.2 °C 29.6in /  1001.7hPa East 2mph /  3.2km/h 4mph /  6.4km/h 92% 0in /  0.0mm 0 W/m2
05:37 43.7 °F /  6.5 °C 41.5 °F /  5.3 °C 29.6in /  1001.7hPa NW 2mph /  3.2km/h 4mph /  6.4km/h 92% 0in /  0.0mm 0 W/m2
05:42 43.9 °F /  6.6 °C 41.7 °F /  5.4 °C 29.6in /  1001.7hPa West 0.9mph /  1.4km/h 8mph /  12.9km/h 92% 0in /  0.0mm 0 W/m2
05:47 44.1 °F /  6.7 °C 41.9 °F /  5.5 °C 29.6in /  1001.4hPa WNW 0.9mph /  1.4km/h 4mph /  6.4km/h 92% 0in /  0.0mm 0 W/m2
05:52 44.1 °F /  6.7 °C 41.9 °F /  5.5 °C 29.6in /  1001.4hPa WNW 2mph /  3.2km/h 8mph /  12.9km/h 92% 0in /  0.0mm 0 W/m2
05:57 44.1 °F /  6.7 °C 42.1 °F /  5.6 °C 29.6in /  1001.4hPa Calm   1mph /  1.6km/h 93% 0in /  0.0mm 0 W/m2
06:02 44.2 °F /  6.8 °C 42.3 °F /  5.7 °C 29.6in /  1001.4hPa Calm   3mph /  4.8km/h 93% 0in /  0.0mm 0 W/m2
06:08 44.2 °F /  6.8 °C 42.3 °F /  5.7 °C 29.6in /  1001.0hPa SE 2.9mph /  4.7km/h 9mph /  14.5km/h 93% 0in /  0.0mm 0 W/m2
06:13 44.2 °F /  6.8 °C 42.3 °F /  5.7 °C 29.6in /  1001.0hPa SSW 0.9mph /  1.4km/h 3mph /  4.8km/h 93% 0in /  0.0mm 0 W/m2
06:18 44.2 °F /  6.8 °C 42.3 °F /  5.7 °C 29.6in /  1000.7hPa West 2mph /  3.2km/h 9mph /  14.5km/h 93% 0in /  0.0mm 0 W/m2
06:23 44.4 °F /  6.9 °C 42.4 °F /  5.8 °C 29.6in /  1000.7hPa NNW 0.9mph /  1.4km/h 3mph /  4.8km/h 93% 0in /  0.0mm 0 W/m2
06:28 44.4 °F /  6.9 °C 42.4 °F /  5.8 °C 29.6in /  1000.7hPa WNW 0.9mph /  1.4km/h 2mph /  3.2km/h 93% 0in /  0.0mm 0 W/m2
06:33 44.4 °F /  6.9 °C 42.4 °F /  5.8 °C 29.6in /  1000.7hPa North 0.9mph /  1.4km/h 2mph /  3.2km/h 93% 0in /  0.0mm 0 W/m2
06:38 44.4 °F /  6.9 °C 42.4 °F /  5.8 °C 29.5in /  1000.3hPa NNW 0.9mph /  1.4km/h 5mph /  8km/h 93% 0in /  0.0mm 0 W/m2
06:43 44.6 °F /  7 °C 42.6 °F /  5.9 °C 29.5in /  1000.3hPa Calm   2mph /  3.2km/h 93% 0in /  0.0mm 0 W/m2
06:48 44.6 °F /  7 °C 42.6 °F /  5.9 °C 29.5in /  1000.3hPa Calm   5mph /  8km/h 93% 0in /  0.0mm 0 W/m2
06:53 44.6 °F /  7 °C 42.6 °F /  5.9 °C 29.5in /  1000.3hPa WSW 2mph /  3.2km/h 2mph /  3.2km/h 93% 0in /  0.0mm 0 W/m2
06:58 44.6 °F /  7 °C 42.6 °F /  5.9 °C 29.5in /  1000.3hPa ENE 2mph /  3.2km/h 3mph /  4.8km/h 93% 0in /  0.0mm 0 W/m2
07:03 44.6 °F /  7 °C 42.6 °F /  5.9 °C 29.5in /  1000.0hPa Calm   2mph /  3.2km/h 93% 0in /  0.0mm 0 W/m2
07:08 44.6 °F /  7 °C 42.6 °F /  5.9 °C 29.5in /  1000.0hPa Calm     93% 0in /  0.0mm 0 W/m2
07:13 44.6 °F /  7 °C 42.6 °F /  5.9 °C 29.5in /  1000.0hPa NNW 0.9mph /  1.4km/h 3mph /  4.8km/h 93% 0in /  0.0mm 0 W/m2
07:18 44.8 °F /  7.1 °C 42.8 °F /  6 °C 29.5in /  1000.0hPa WNW 0.9mph /  1.4km/h 2mph /  3.2km/h 93% 0in /  0.0mm 0 W/m2
07:23 44.8 °F /  7.1 °C 42.8 °F /  6 °C 29.5in /  1000.0hPa Calm     93% 0in /  0.0mm 0 W/m2
07:28 44.8 °F /  7.1 °C 42.8 °F /  6 °C 29.5in /  1000.0hPa Calm   2mph /  3.2km/h 93% 0in /  0.0mm 0 W/m2
07:33 44.8 °F /  7.1 °C 42.8 °F /  6 °C 29.5in /  1000.0hPa NW 0.9mph /  1.4km/h 3mph /  4.8km/h 93% 0in /  0.0mm 0 W/m2
07:38 44.8 °F /  7.1 °C 42.8 °F /  6 °C 29.5in /  1000.0hPa Calm   2mph /  3.2km/h 93% 0in /  0.0mm 0 W/m2
07:43 44.8 °F /  7.1 °C 42.8 °F /  6 °C 29.5in /  1000.0hPa Calm   3mph /  4.8km/h 93% 0in /  0.0mm 0 W/m2
07:48 44.6 °F /  7 °C 42.6 °F /  5.9 °C 29.5in /  1000.0hPa SSW 2.9mph /  4.7km/h 3mph /  4.8km/h 93% 0in /  0.0mm 0 W/m2
07:53 44.6 °F /  7 °C 42.6 °F /  5.9 °C 29.5in /  1000.0hPa Calm   1mph /  1.6km/h 93% 0in /  0.0mm 0 W/m2
07:58 44.6 °F /  7 °C 42.6 °F /  5.9 °C 29.5in /  999.7hPa West 0.9mph /  1.4km/h 2mph /  3.2km/h 93% 0in /  0.0mm 0 W/m2
08:03 44.8 °F /  7.1 °C 43.2 °F /  6.2 °C 29.5in /  1000.0hPa WNW 0.9mph /  1.4km/h 3mph /  4.8km/h 94% 0in /  0.0mm 0 W/m2
08:08 44.8 °F /  7.1 °C 43.2 °F /  6.2 °C 29.5in /  1000.0hPa Calm   2mph /  3.2km/h 94% 0in /  0.0mm 0 W/m2
08:13 44.8 °F /  7.1 °C 43.2 °F /  6.2 °C 29.5in /  1000.0hPa Calm   2mph /  3.2km/h 94% 0in /  0.0mm 0 W/m2
08:18 45 °F /  7.2 °C 43 °F /  6.1 °C 29.5in /  999.7hPa Calm     93% 0in /  0.0mm 0 W/m2
08:23 45 °F /  7.2 °C 43 °F /  6.1 °C 29.5in /  999.7hPa Calm     93% 0in /  0.0mm 0 W/m2
08:28 44.8 °F /  7.1 °C 42.8 °F /  6 °C 29.5in /  1000.0hPa Calm     93% 0in /  0.0mm 0 W/m2
08:33 44.8 °F /  7.1 °C 43.2 °F /  6.2 °C 29.5in /  999.7hPa Calm   1mph /  1.6km/h 94% 0in /  0.0mm 0 W/m2
08:38 44.6 °F /  7 °C 43 °F /  6.1 °C 29.5in /  999.7hPa Calm   1mph /  1.6km/h 94% 0in /  0.0mm 0 W/m2
08:43 44.4 °F /  6.9 °C 42.8 °F /  6 °C 29.5in /  999.7hPa ENE 0.9mph /  1.4km/h 2mph /  3.2km/h 94% 0in /  0.0mm 7 W/m2
08:48 44.4 °F /  6.9 °C 42.8 °F /  6 °C 29.5in /  999.7hPa Calm     94% 0.01in /  0.2mm 7 W/m2
08:53 44.4 °F /  6.9 °C 42.8 °F /  6 °C 29.5in /  999.7hPa Calm     94% 0.01in /  0.2mm 9 W/m2
08:58 44.2 °F /  6.8 °C 42.6 °F /  5.9 °C 29.5in /  999.7hPa Calm     94% 0.02in /  0.5mm 11 W/m2
09:03 44.2 °F /  6.8 °C 42.6 °F /  5.9 °C 29.5in /  999.7hPa Calm     94% 0.02in /  0.5mm 12 W/m2
09:08 44.2 °F /  6.8 °C 43 °F /  6.1 °C 29.5in /  999.3hPa Calm     95% 0.02in /  0.5mm 14 W/m2
09:13 44.2 °F /  6.8 °C 43 °F /  6.1 °C 29.5in /  999.3hPa ENE 0.9mph /  1.4km/h 2mph /  3.2km/h 95% 0.02in /  0.5mm 14 W/m2
09:18 44.2 °F /  6.8 °C 43 °F /  6.1 °C 29.5in /  999.0hPa Calm   1mph /  1.6km/h 95% 0.02in /  0.5mm 18 W/m2
09:23 44.1 °F /  6.7 °C 42.8 °F /  6 °C 29.5in /  999.0hPa Calm     95% 0.03in /  0.8mm 18 W/m2
09:28 44.1 °F /  6.7 °C 42.8 °F /  6 °C 29.5in /  999.0hPa Calm   2mph /  3.2km/h 95% 0.03in /  0.8mm 23 W/m2
09:33 44.1 °F /  6.7 °C 42.8 °F /  6 °C 29.5in /  998.6hPa Calm   1mph /  1.6km/h 95% 0.04in /  1.0mm 26 W/m2
09:38 44.1 °F /  6.7 °C 42.8 °F /  6 °C 29.5in /  998.6hPa East 0.9mph /  1.4km/h 2mph /  3.2km/h 95% 0.04in /  1.0mm 23 W/m2
09:43 44.1 °F /  6.7 °C 42.8 °F /  6 °C 29.5in /  998.6hPa East 0.9mph /  1.4km/h 1mph /  1.6km/h 95% 0.05in /  1.3mm 19 W/m2
09:48 43.9 °F /  6.6 °C 42.6 °F /  5.9 °C 29.5in /  998.6hPa East 0.9mph /  1.4km/h 2mph /  3.2km/h 95% 0.05in /  1.3mm 18 W/m2
09:53 43.9 °F /  6.6 °C 42.6 °F /  5.9 °C 29.5in /  998.6hPa East 0.9mph /  1.4km/h 2mph /  3.2km/h 95% 0.06in /  1.5mm 23 W/m2
09:58 43.9 °F /  6.6 °C 42.6 °F /  5.9 °C 29.5in /  998.6hPa Calm   1mph /  1.6km/h 95% 0.05in /  1.3mm 26 W/m2
10:03 43.9 °F /  6.6 °C 42.8 °F /  6 °C 29.5in /  998.6hPa Calm   1mph /  1.6km/h 96% 0.06in /  1.5mm 30 W/m2
10:08 43.9 °F /  6.6 °C 42.8 °F /  6 °C 29.5in /  998.6hPa Calm     96% 0.05in /  1.3mm 30 W/m2
10:13 43.9 °F /  6.6 °C 42.8 °F /  6 °C 29.5in /  998.6hPa Calm   1mph /  1.6km/h 96% 0.06in /  1.5mm 32 W/m2
10:18 43.9 °F /  6.6 °C 42.8 °F /  6 °C 29.5in /  998.3hPa East 0.9mph /  1.4km/h 1mph /  1.6km/h 96% 0.06in /  1.5mm 35 W/m2
10:23 43.9 °F /  6.6 °C 42.8 °F /  6 °C 29.5in /  998.3hPa Calm   1mph /  1.6km/h 96% 0.06in /  1.5mm 30 W/m2
10:28 43.9 °F /  6.6 °C 42.8 °F /  6 °C 29.5in /  998.3hPa East 0.9mph /  1.4km/h 3mph /  4.8km/h 96% 0.06in /  1.5mm 25 W/m2
10:33 43.9 °F /  6.6 °C 42.8 °F /  6 °C 29.5in /  998.3hPa ENE 2mph /  3.2km/h 2mph /  3.2km/h 96% 0.06in /  1.5mm 28 W/m2
10:38 43.9 °F /  6.6 °C 42.8 °F /  6 °C 29.5in /  998.3hPa East 0.9mph /  1.4km/h 1mph /  1.6km/h 96% 0.07in /  1.8mm 28 W/m2
10:43 43.9 °F /  6.6 °C 42.8 °F /  6 °C 29.5in /  998.3hPa East 2.9mph /  4.7km/h 4mph /  6.4km/h 96% 0.06in /  1.5mm 51 W/m2
10:48 44.1 °F /  6.7 °C 43 °F /  6.1 °C 29.5in /  998.0hPa Calm   2mph /  3.2km/h 96% 0.06in /  1.5mm 56 W/m2
10:53 44.1 °F /  6.7 °C 43 °F /  6.1 °C 29.5in /  998.0hPa Calm     96% 0.06in /  1.5mm 60 W/m2
10:58 44.2 °F /  6.8 °C 43.2 °F /  6.2 °C 29.5in /  998.0hPa Calm   1mph /  1.6km/h 96% 0.06in /  1.5mm 49 W/m2
11:03 44.2 °F /  6.8 °C 43.2 °F /  6.2 °C 29.5in /  998.0hPa ENE 0.9mph /  1.4km/h 3mph /  4.8km/h 96% 0.06in /  1.5mm 60 W/m2
11:08 44.2 °F /  6.8 °C 43.2 °F /  6.2 °C 29.5in /  998.0hPa Calm   3mph /  4.8km/h 96% 0.06in /  1.5mm 67 W/m2
11:13 44.4 °F /  6.9 °C 43.3 °F /  6.3 °C 29.5in /  997.6hPa ENE 0.9mph /  1.4km/h 2mph /  3.2km/h 96% 0.06in /  1.5mm 70 W/m2
11:18 44.4 °F /  6.9 °C 43.3 °F /  6.3 °C 29.5in /  997.6hPa ENE 0.9mph /  1.4km/h 2mph /  3.2km/h 96% 0.06in /  1.5mm 67 W/m2
11:23 44.6 °F /  7 °C 43.9 °F /  6.6 °C 29.5in /  997.6hPa ESE 0.9mph /  1.4km/h 1mph /  1.6km/h 97% 0.06in /  1.5mm 58 W/m2
11:28 44.6 °F /  7 °C 43.5 °F /  6.4 °C 29.5in /  997.6hPa NE 2mph /  3.2km/h 4mph /  6.4km/h 96% 0.06in /  1.5mm 69 W/m2
11:33 44.4 °F /  6.9 °C 43.3 °F /  6.3 °C 29.5in /  997.3hPa Calm   1mph /  1.6km/h 96% 0.06in /  1.5mm 54 W/m2
11:38 44.4 °F /  6.9 °C 43.3 °F /  6.3 °C 29.4in /  997.0hPa Calm   4mph /  6.4km/h 96% 0.06in /  1.5mm 70 W/m2
11:44 44.4 °F /  6.9 °C 43.3 °F /  6.3 °C 29.4in /  997.0hPa Calm   3mph /  4.8km/h 96% 0.06in /  1.5mm 77 W/m2
11:49 44.4 °F /  6.9 °C 43.3 °F /  6.3 °C 29.4in /  997.0hPa ENE 0.9mph /  1.4km/h 2mph /  3.2km/h 96% 0.06in /  1.5mm 62 W/m2
11:54 44.4 °F /  6.9 °C 43.3 °F /  6.3 °C 29.4in /  997.0hPa ENE 0.9mph /  1.4km/h 4mph /  6.4km/h 96% 0.06in /  1.5mm 67 W/m2
11:59 44.4 °F /  6.9 °C 43.3 °F /  6.3 °C 29.4in /  996.6hPa NE 2mph /  3.2km/h 4mph /  6.4km/h 96% 0.06in /  1.5mm 93 W/m2
12:04 44.4 °F /  6.9 °C 43.3 °F /  6.3 °C 29.4in /  996.6hPa ESE 2mph /  3.2km/h 5mph /  8km/h 96% 0.06in /  1.5mm 83 W/m2
12:09 44.4 °F /  6.9 °C 43.7 °F /  6.5 °C 29.4in /  996.6hPa East 2mph /  3.2km/h 4mph /  6.4km/h 97% 0.06in /  1.5mm 81 W/m2
12:14 44.4 °F /  6.9 °C 43.3 °F /  6.3 °C 29.4in /  996.6hPa ENE 0.9mph /  1.4km/h 3mph /  4.8km/h 96% 0.06in /  1.5mm 86 W/m2
12:19 44.4 °F /  6.9 °C 43.3 °F /  6.3 °C 29.4in /  996.3hPa ESE 0.9mph /  1.4km/h 4mph /  6.4km/h 96% 0.06in /  1.5mm 79 W/m2
12:24 44.4 °F /  6.9 °C 43.3 °F /  6.3 °C 29.4in /  996.3hPa ESE 2.9mph /  4.7km/h 3mph /  4.8km/h 96% 0.06in /  1.5mm 63 W/m2
12:29 44.6 °F /  7 °C 43.5 °F /  6.4 °C 29.4in /  996.3hPa East 0.9mph /  1.4km/h 1mph /  1.6km/h 96% 0.05in /  1.3mm 56 W/m2
12:34 44.6 °F /  7 °C 43.5 °F /  6.4 °C 29.4in /  995.9hPa ESE 2.9mph /  4.7km/h 3mph /  4.8km/h 96% 0.04in /  1.0mm 65 W/m2
12:39 44.4 °F /  6.9 °C 43.3 °F /  6.3 °C 29.4in /  995.9hPa ESE 2mph /  3.2km/h 3mph /  4.8km/h 96% 0.05in /  1.3mm 53 W/m2
12:44 44.4 °F /  6.9 °C 43.3 °F /  6.3 °C 29.4in /  995.9hPa ESE 2mph /  3.2km/h 2mph /  3.2km/h 96% 0.04in /  1.0mm 53 W/m2
12:49 44.4 °F /  6.9 °C 43.3 °F /  6.3 °C 29.4in /  995.9hPa East 2mph /  3.2km/h 6mph /  9.7km/h 96% 0.04in /  1.0mm 46 W/m2
12:54 44.2 °F /  6.8 °C 43.2 °F /  6.2 °C 29.4in /  995.9hPa East 2mph /  3.2km/h 3mph /  4.8km/h 96% 0.04in /  1.0mm 47 W/m2
12:59 44.2 °F /  6.8 °C 43.2 °F /  6.2 °C 29.4in /  995.9hPa SE 2mph /  3.2km/h 2mph /  3.2km/h 96% 0.04in /  1.0mm 40 W/m2
13:04 44.2 °F /  6.8 °C 43.2 °F /  6.2 °C 29.4in /  995.6hPa Calm   3mph /  4.8km/h 96% 0.04in /  1.0mm 42 W/m2
13:09 44.2 °F /  6.8 °C 43.2 °F /  6.2 °C 29.4in /  995.6hPa ESE 2mph /  3.2km/h 2mph /  3.2km/h 96% 0.05in /  1.3mm 35 W/m2
13:14 44.2 °F /  6.8 °C 43.2 °F /  6.2 °C 29.4in /  995.6hPa Calm   3mph /  4.8km/h 96% 0.04in /  1.0mm 30 W/m2
13:19 44.2 °F /  6.8 °C 43.2 °F /  6.2 °C 29.4in /  995.6hPa ESE 2.9mph /  4.7km/h 3mph /  4.8km/h 96% 0.04in /  1.0mm 40 W/m2
13:24 44.2 °F /  6.8 °C 43.2 °F /  6.2 °C 29.4in /  995.6hPa ESE 2mph /  3.2km/h 4mph /  6.4km/h 96% 0.04in /  1.0mm 47 W/m2
13:29 44.2 °F /  6.8 °C 43.2 °F /  6.2 °C 29.4in /  995.3hPa ENE 2.9mph /  4.7km/h 4mph /  6.4km/h 96% 0.04in /  1.0mm 47 W/m2
13:34 44.2 °F /  6.8 °C 43.2 °F /  6.2 °C 29.4in /  995.3hPa SE 0.9mph /  1.4km/h 5mph /  8km/h 96% 0.04in /  1.0mm 40 W/m2
13:39 44.2 °F /  6.8 °C 43.2 °F /  6.2 °C 29.4in /  995.3hPa Calm     96% 0.04in /  1.0mm 23 W/m2
13:44 44.2 °F /  6.8 °C 43.2 °F /  6.2 °C 29.4in /  995.3hPa Calm   3mph /  4.8km/h 96% 0.04in /  1.0mm 25 W/m2
13:49 44.1 °F /  6.7 °C 43 °F /  6.1 °C 29.4in /  995.3hPa East 2mph /  3.2km/h 7mph /  11.3km/h 96% 0.04in /  1.0mm 28 W/m2
13:54 44.1 °F /  6.7 °C 43 °F /  6.1 °C 29.4in /  995.3hPa ENE 2mph /  3.2km/h 4mph /  6.4km/h 96% 0.04in /  1.0mm 35 W/m2
13:59 44.1 °F /  6.7 °C 43 °F /  6.1 °C 29.4in /  995.3hPa Calm   6mph /  9.7km/h 96% 0.05in /  1.3mm 39 W/m2
14:04 44.1 °F /  6.7 °C 43 °F /  6.1 °C 29.4in /  995.3hPa East 0.9mph /  1.4km/h 3mph /  4.8km/h 96% 0.04in /  1.0mm 30 W/m2
14:09 44.1 °F /  6.7 °C 43 °F /  6.1 °C 29.4in /  994.9hPa East 0.9mph /  1.4km/h 2mph /  3.2km/h 96% 0.04in /  1.0mm 30 W/m2
14:14 43.9 °F /  6.6 °C 42.8 °F /  6 °C 29.4in /  994.9hPa East 0.9mph /  1.4km/h 3mph /  4.8km/h 96% 0.04in /  1.0mm 35 W/m2
14:19 43.9 °F /  6.6 °C 42.8 °F /  6 °C 29.4in /  994.9hPa East 4mph /  6.4km/h 4mph /  6.4km/h 96% 0.04in /  1.0mm 32 W/m2
14:24 43.9 °F /  6.6 °C 42.8 °F /  6 °C 29.4in /  994.9hPa Calm   3mph /  4.8km/h 96% 0.03in /  0.8mm 30 W/m2
14:29 43.9 °F /  6.6 °C 42.8 °F /  6 °C 29.4in /  994.9hPa ESE 2.9mph /  4.7km/h 4mph /  6.4km/h 96% 0.04in /  1.0mm 25 W/m2
14:34 43.9 °F /  6.6 °C 43.2 °F /  6.2 °C 29.4in /  994.6hPa Calm   2mph /  3.2km/h 97% 0.03in /  0.8mm 37 W/m2
14:39 44.1 °F /  6.7 °C 43.3 °F /  6.3 °C 29.4in /  994.6hPa Calm   2mph /  3.2km/h 97% 0.03in /  0.8mm 35 W/m2
14:44 44.1 °F /  6.7 °C 43 °F /  6.1 °C 29.4in /  994.6hPa Calm   2mph /  3.2km/h 96% 0.04in /  1.0mm 26 W/m2
14:49 44.1 °F /  6.7 °C 43 °F /  6.1 °C 29.4in /  994.6hPa Calm   1mph /  1.6km/h 96% 0.04in /  1.0mm 23 W/m2
14:54 44.1 °F /  6.7 °C 43 °F /  6.1 °C 29.4in /  994.6hPa East 2.9mph /  4.7km/h 3mph /  4.8km/h 96% 0.04in /  1.0mm 28 W/m2
14:59 44.1 °F /  6.7 °C 43 °F /  6.1 °C 29.4in /  994.6hPa East 0.9mph /  1.4km/h 2mph /  3.2km/h 96% 0.03in /  0.8mm 33 W/m2
15:04 44.1 °F /  6.7 °C 43 °F /  6.1 °C 29.4in /  994.6hPa East 2mph /  3.2km/h 2mph /  3.2km/h 96% 0.04in /  1.0mm 30 W/m2
15:09 44.1 °F /  6.7 °C 43 °F /  6.1 °C 29.4in /  994.6hPa ENE 0.9mph /  1.4km/h 2mph /  3.2km/h 96% 0.04in /  1.0mm 26 W/m2
15:14 44.1 °F /  6.7 °C 43.3 °F /  6.3 °C 29.4in /  994.2hPa ENE 2mph /  3.2km/h 2mph /  3.2km/h 97% 0.04in /  1.0mm 25 W/m2
15:19 44.1 °F /  6.7 °C 43.3 °F /  6.3 °C 29.4in /  994.2hPa ENE 2mph /  3.2km/h 3mph /  4.8km/h 97% 0.05in /  1.3mm 23 W/m2
15:24 44.1 °F /  6.7 °C 43.3 °F /  6.3 °C 29.4in /  994.2hPa ENE 2mph /  3.2km/h 2mph /  3.2km/h 97% 0.05in /  1.3mm 19 W/m2
15:29 44.1 °F /  6.7 °C 43.3 °F /  6.3 °C 29.4in /  994.2hPa Calm   3mph /  4.8km/h 97% 0.05in /  1.3mm 16 W/m2
15:34 44.1 °F /  6.7 °C 43.3 °F /  6.3 °C 29.4in /  994.2hPa Calm   3mph /  4.8km/h 97% 0.05in /  1.3mm 19 W/m2
15:39 43.9 °F /  6.6 °C 43.2 °F /  6.2 °C 29.4in /  994.2hPa NE 2mph /  3.2km/h 2mph /  3.2km/h 97% 0.06in /  1.5mm 19 W/m2
15:44 43.9 °F /  6.6 °C 43.2 °F /  6.2 °C 29.4in /  994.2hPa Calm   2mph /  3.2km/h 97% 0.05in /  1.3mm 14 W/m2
15:49 43.9 °F /  6.6 °C 43.2 °F /  6.2 °C 29.4in /  994.2hPa East 0.9mph /  1.4km/h 3mph /  4.8km/h 97% 0.06in /  1.5mm 12 W/m2
15:54 43.9 °F /  6.6 °C 43.2 °F /  6.2 °C 29.4in /  994.2hPa ENE 0.9mph /  1.4km/h 2mph /  3.2km/h 97% 0.05in /  1.3mm 12 W/m2
15:59 43.9 °F /  6.6 °C 43.2 °F /  6.2 °C 29.4in /  994.2hPa East 2mph /  3.2km/h 3mph /  4.8km/h 97% 0.06in /  1.5mm 12 W/m2
16:04 43.9 °F /  6.6 °C 43.2 °F /  6.2 °C 29.4in /  994.2hPa East 0.9mph /  1.4km/h 4mph /  6.4km/h 97% 0.05in /  1.3mm 14 W/m2
16:09 43.9 °F /  6.6 °C 43.2 °F /  6.2 °C 29.4in /  994.2hPa East 0.9mph /  1.4km/h 2mph /  3.2km/h 97% 0.05in /  1.3mm 12 W/m2
16:14 43.9 °F /  6.6 °C 43.2 °F /  6.2 °C 29.4in /  993.9hPa ENE 2mph /  3.2km/h 4mph /  6.4km/h 97% 0.06in /  1.5mm 14 W/m2
16:20 43.9 °F /  6.6 °C 43.2 °F /  6.2 °C 29.4in /  993.9hPa Calm   2mph /  3.2km/h 97% 0.05in /  1.3mm 12 W/m2
16:25 43.9 °F /  6.6 °C 43.2 °F /  6.2 °C 29.4in /  993.9hPa East 0.9mph /  1.4km/h 4mph /  6.4km/h 97% 0.06in /  1.5mm 9 W/m2
16:30 43.9 °F /  6.6 °C 43.2 °F /  6.2 °C 29.4in /  993.9hPa East 0.9mph /  1.4km/h 1mph /  1.6km/h 97% 0.06in /  1.5mm 7 W/m2
16:35 43.9 °F /  6.6 °C 43.2 °F /  6.2 °C 29.4in /  993.9hPa Calm   1mph /  1.6km/h 97% 0.06in /  1.5mm 11 W/m2
16:40 43.9 °F /  6.6 °C 43.2 °F /  6.2 °C 29.4in /  993.9hPa Calm   3mph /  4.8km/h 97% 0.06in /  1.5mm 9 W/m2
16:45 43.9 °F /  6.6 °C 43.2 °F /  6.2 °C 29.4in /  994.2hPa ESE 0.9mph /  1.4km/h 2mph /  3.2km/h 97% 0.06in /  1.5mm 5 W/m2
16:50 43.9 °F /  6.6 °C 43.2 °F /  6.2 °C 29.4in /  994.2hPa ESE 0.9mph /  1.4km/h 2mph /  3.2km/h 97% 0.06in /  1.5mm 7 W/m2
16:55 43.9 °F /  6.6 °C 43.2 °F /  6.2 °C 29.4in /  994.2hPa Calm   2mph /  3.2km/h 97% 0.06in /  1.5mm 5 W/m2
17:00 43.9 °F /  6.6 °C 43.2 °F /  6.2 °C 29.4in /  993.9hPa ESE 0.9mph /  1.4km/h 3mph /  4.8km/h 97% 0.05in /  1.3mm 5 W/m2
17:05 43.9 °F /  6.6 °C 43.2 °F /  6.2 °C 29.4in /  994.2hPa Calm   1mph /  1.6km/h 97% 0.06in /  1.5mm 5 W/m2
17:10 43.9 °F /  6.6 °C 43.2 °F /  6.2 °C 29.4in /  994.2hPa NE 0.9mph /  1.4km/h 3mph /  4.8km/h 97% 0.05in /  1.3mm 0 W/m2
17:15 43.9 °F /  6.6 °C 43.2 °F /  6.2 °C 29.4in /  993.9hPa Calm   4mph /  6.4km/h 97% 0.05in /  1.3mm 0 W/m2
17:20 43.9 °F /  6.6 °C 43.2 °F /  6.2 °C 29.4in /  994.2hPa Calm   1mph /  1.6km/h 97% 0.05in /  1.3mm 0 W/m2
17:25 43.9 °F /  6.6 °C 43.2 °F /  6.2 °C 29.4in /  994.2hPa NE 0.9mph /  1.4km/h 4mph /  6.4km/h 97% 0.04in /  1.0mm 0 W/m2
17:30 43.9 °F /  6.6 °C 43.2 °F /  6.2 °C 29.4in /  994.2hPa Calm   2mph /  3.2km/h 97% 0.04in /  1.0mm 0 W/m2
17:35 43.7 °F /  6.5 °C 43 °F /  6.1 °C 29.4in /  994.2hPa Calm     97% 0.04in /  1.0mm 0 W/m2
17:40 43.7 °F /  6.5 °C 43 °F /  6.1 °C 29.4in /  994.2hPa East 0.9mph /  1.4km/h 2mph /  3.2km/h 97% 0.03in /  0.8mm 0 W/m2
17:45 43.7 °F /  6.5 °C 43 °F /  6.1 °C 29.4in /  994.2hPa NE 2.9mph /  4.7km/h 3mph /  4.8km/h 97% 0.03in /  0.8mm 0 W/m2
17:50 43.7 °F /  6.5 °C 43 °F /  6.1 °C 29.4in /  994.2hPa Calm     97% 0.02in /  0.5mm 0 W/m2
17:55 43.7 °F /  6.5 °C 43 °F /  6.1 °C 29.4in /  994.2hPa NE 0.9mph /  1.4km/h 3mph /  4.8km/h 97% 0.03in /  0.8mm 0 W/m2
18:00 43.5 °F /  6.4 °C 42.8 °F /  6 °C 29.4in /  994.2hPa ENE 2mph /  3.2km/h 4mph /  6.4km/h 97% 0.03in /  0.8mm 0 W/m2
18:05 43.5 °F /  6.4 °C 42.8 °F /  6 °C 29.4in /  994.2hPa ESE 2mph /  3.2km/h 3mph /  4.8km/h 97% 0.02in /  0.5mm 0 W/m2
18:10 43.5 °F /  6.4 °C 42.8 °F /  6 °C 29.4in /  994.6hPa Calm   4mph /  6.4km/h 97% 0.02in /  0.5mm 0 W/m2
18:15 43.5 °F /  6.4 °C 42.8 °F /  6 °C 29.4in /  994.6hPa Calm   1mph /  1.6km/h 97% 0.02in /  0.5mm 0 W/m2
Juneau County Weather
Compliments of Weather Underground - 2 mb